sensor_id;sensor_type;location;lat;lon;timestamp;P1;durP1;ratioP1;P2;durP2;ratioP2
10144;SDS011;5113;41.822;23.564;2024-03-23T00:52:41;9.20;;;6.07;;
10144;SDS011;5113;41.822;23.564;2024-03-23T00:55:46;11.43;;;5.93;;
10144;SDS011;5113;41.822;23.564;2024-03-23T00:58:51;10.37;;;5.80;;
10144;SDS011;5113;41.822;23.564;2024-03-23T01:01:56;10.83;;;6.50;;
10144;SDS011;5113;41.822;23.564;2024-03-23T01:05:01;8.17;;;6.43;;
10144;SDS011;5113;41.822;23.564;2024-03-23T01:08:08;11.53;;;6.80;;
10144;SDS011;5113;41.822;23.564;2024-03-23T01:11:13;9.97;;;6.70;;
10144;SDS011;5113;41.822;23.564;2024-03-23T01:14:19;13.87;;;8.73;;
10144;SDS011;5113;41.822;23.564;2024-03-23T01:17:22;12.87;;;8.27;;
10144;SDS011;5113;41.822;23.564;2024-03-23T01:20:28;14.87;;;8.67;;
10144;SDS011;5113;41.822;23.564;2024-03-23T01:23:34;16.50;;;7.87;;
10144;SDS011;5113;41.822;23.564;2024-03-23T01:26:40;10.80;;;7.00;;
10144;SDS011;5113;41.822;23.564;2024-03-23T01:29:44;7.13;;;5.43;;
10144;SDS011;5113;41.822;23.564;2024-03-23T01:32:50;15.17;;;8.43;;
10144;SDS011;5113;41.822;23.564;2024-03-23T01:35:54;10.57;;;7.87;;
10144;SDS011;5113;41.822;23.564;2024-03-23T01:39:01;11.97;;;7.93;;
10144;SDS011;5113;41.822;23.564;2024-03-23T01:42:05;7.43;;;5.63;;
10144;SDS011;5113;41.822;23.564;2024-03-23T01:45:10;7.73;;;5.20;;
10144;SDS011;5113;41.822;23.564;2024-03-23T01:48:15;8.93;;;6.33;;
10144;SDS011;5113;41.822;23.564;2024-03-23T01:51:21;7.13;;;6.07;;
10144;SDS011;5113;41.822;23.564;2024-03-23T01:54:27;8.00;;;6.30;;
10144;SDS011;5113;41.822;23.564;2024-03-23T01:57:34;10.13;;;6.93;;
10144;SDS011;5113;41.822;23.564;2024-03-23T02:00:38;9.33;;;6.00;;
10144;SDS011;5113;41.822;23.564;2024-03-23T02:03:44;7.10;;;4.83;;
10144;SDS011;5113;41.822;23.564;2024-03-23T02:06:48;6.57;;;5.70;;
10144;SDS011;5113;41.822;23.564;2024-03-23T02:09:55;8.97;;;6.37;;
10144;SDS011;5113;41.822;23.564;2024-03-23T02:13:00;8.83;;;6.40;;
10144;SDS011;5113;41.822;23.564;2024-03-23T02:16:06;8.10;;;5.90;;
10144;SDS011;5113;41.822;23.564;2024-03-23T02:19:10;11.40;;;7.00;;
10144;SDS011;5113;41.822;23.564;2024-03-23T02:22:16;10.37;;;6.47;;
10144;SDS011;5113;41.822;23.564;2024-03-23T02:25:21;10.73;;;5.93;;
10144;SDS011;5113;41.822;23.564;2024-03-23T02:28:27;7.33;;;5.87;;
10144;SDS011;5113;41.822;23.564;2024-03-23T02:31:31;11.20;;;6.53;;
10144;SDS011;5113;41.822;23.564;2024-03-23T02:34:37;9.53;;;6.37;;
10144;SDS011;5113;41.822;23.564;2024-03-23T02:37:41;9.07;;;6.30;;
10144;SDS011;5113;41.822;23.564;2024-03-23T02:40:48;11.80;;;7.60;;
10144;SDS011;5113;41.822;23.564;2024-03-23T02:43:53;15.27;;;9.70;;
10144;SDS011;5113;41.822;23.564;2024-03-23T02:46:57;10.07;;;5.23;;
10144;SDS011;5113;41.822;23.564;2024-03-23T02:50:03;7.63;;;5.93;;
10144;SDS011;5113;41.822;23.564;2024-03-23T02:53:09;12.57;;;7.67;;
10144;SDS011;5113;41.822;23.564;2024-03-23T02:56:16;21.67;;;9.63;;
10144;SDS011;5113;41.822;23.564;2024-03-23T02:59:21;43.53;;;18.53;;
10144;SDS011;5113;41.822;23.564;2024-03-23T03:02:27;39.77;;;15.90;;
10144;SDS011;5113;41.822;23.564;2024-03-23T03:05:32;26.17;;;12.33;;
10144;SDS011;5113;41.822;23.564;2024-03-23T03:08:38;14.10;;;8.23;;
10144;SDS011;5113;41.822;23.564;2024-03-23T03:11:44;11.23;;;7.30;;
10144;SDS011;5113;41.822;23.564;2024-03-23T03:14:49;12.27;;;6.67;;
10144;SDS011;5113;41.822;23.564;2024-03-23T03:17:54;9.23;;;6.47;;
10144;SDS011;5113;41.822;23.564;2024-03-23T03:20:59;10.33;;;6.77;;
10144;SDS011;5113;41.822;23.564;2024-03-23T03:24:05;9.80;;;6.77;;
10144;SDS011;5113;41.822;23.564;2024-03-23T03:27:13;6.53;;;5.90;;
10144;SDS011;5113;41.822;23.564;2024-03-23T03:30:18;7.57;;;5.50;;
10144;SDS011;5113;41.822;23.564;2024-03-23T03:33:24;10.63;;;5.60;;
10144;SDS011;5113;41.822;23.564;2024-03-23T03:36:28;8.50;;;5.83;;
10144;SDS011;5113;41.822;23.564;2024-03-23T03:39:34;7.03;;;5.40;;
10144;SDS011;5113;41.822;23.564;2024-03-23T03:42:39;8.80;;;5.53;;
10144;SDS011;5113;41.822;23.564;2024-03-23T03:45:51;6.60;;;5.47;;
10144;SDS011;5113;41.822;23.564;2024-03-23T03:48:55;7.17;;;5.17;;
10144;SDS011;5113;41.822;23.564;2024-03-23T03:52:01;8.20;;;5.60;;
10144;SDS011;5113;41.822;23.564;2024-03-23T03:55:09;6.37;;;5.13;;
10144;SDS011;5113;41.822;23.564;2024-03-23T03:58:18;11.53;;;6.30;;
10144;SDS011;5113;41.822;23.564;2024-03-23T04:01:23;64.83;;;29.97;;
10144;SDS011;5113;41.822;23.564;2024-03-23T04:04:28;61.20;;;29.73;;
10144;SDS011;5113;41.822;23.564;2024-03-23T04:07:33;52.97;;;24.70;;
10144;SDS011;5113;41.822;23.564;2024-03-23T04:10:38;17.97;;;10.60;;
10144;SDS011;5113;41.822;23.564;2024-03-23T04:13:44;69.80;;;34.47;;
10144;SDS011;5113;41.822;23.564;2024-03-23T04:16:49;54.43;;;32.07;;
10144;SDS011;5113;41.822;23.564;2024-03-23T04:19:53;52.00;;;23.23;;
10144;SDS011;5113;41.822;23.564;2024-03-23T04:23:00;56.77;;;23.50;;
10144;SDS011;5113;41.822;23.564;2024-03-23T04:26:05;45.50;;;21.13;;
10144;SDS011;5113;41.822;23.564;2024-03-23T04:29:12;54.13;;;30.40;;
10144;SDS011;5113;41.822;23.564;2024-03-23T04:32:17;25.33;;;14.23;;
10144;SDS011;5113;41.822;23.564;2024-03-23T04:35:21;45.57;;;23.23;;
10144;SDS011;5113;41.822;23.564;2024-03-23T04:38:29;141.93;;;62.60;;
10144;SDS011;5113;41.822;23.564;2024-03-23T04:41:34;68.30;;;27.83;;
10144;SDS011;5113;41.822;23.564;2024-03-23T04:44:40;42.63;;;23.77;;
10144;SDS011;5113;41.822;23.564;2024-03-23T04:47:46;19.90;;;11.23;;
10144;SDS011;5113;41.822;23.564;2024-03-23T04:50:54;22.40;;;10.73;;
10144;SDS011;5113;41.822;23.564;2024-03-23T04:54:01;31.80;;;15.93;;
10144;SDS011;5113;41.822;23.564;2024-03-23T04:57:06;25.10;;;13.77;;
10144;SDS011;5113;41.822;23.564;2024-03-23T05:00:14;31.57;;;17.23;;
10144;SDS011;5113;41.822;23.564;2024-03-23T05:03:22;32.67;;;21.33;;
10144;SDS011;5113;41.822;23.564;2024-03-23T05:06:28;34.87;;;21.17;;
10144;SDS011;5113;41.822;23.564;2024-03-23T05:09:32;38.37;;;22.33;;
10144;SDS011;5113;41.822;23.564;2024-03-23T05:12:38;36.93;;;22.07;;
10144;SDS011;5113;41.822;23.564;2024-03-23T05:15:50;29.37;;;18.17;;
10144;SDS011;5113;41.822;23.564;2024-03-23T05:18:57;35.10;;;21.23;;
10144;SDS011;5113;41.822;23.564;2024-03-23T05:22:02;71.87;;;40.50;;
10144;SDS011;5113;41.822;23.564;2024-03-23T05:25:07;102.43;;;47.83;;
10144;SDS011;5113;41.822;23.564;2024-03-23T05:28:13;61.47;;;30.63;;
10144;SDS011;5113;41.822;23.564;2024-03-23T05:31:24;47.10;;;24.57;;
10144;SDS011;5113;41.822;23.564;2024-03-23T05:34:30;33.60;;;18.27;;
10144;SDS011;5113;41.822;23.564;2024-03-23T05:37:34;39.37;;;18.90;;
10144;SDS011;5113;41.822;23.564;2024-03-23T05:40:40;40.20;;;25.13;;
10144;SDS011;5113;41.822;23.564;2024-03-23T05:43:45;26.27;;;15.53;;
10144;SDS011;5113;41.822;23.564;2024-03-23T05:46:51;31.47;;;19.73;;
10144;SDS011;5113;41.822;23.564;2024-03-23T05:49:56;24.27;;;16.00;;
10144;SDS011;5113;41.822;23.564;2024-03-23T05:53:01;18.23;;;10.63;;
10144;SDS011;5113;41.822;23.564;2024-03-23T05:56:08;17.37;;;10.67;;
10144;SDS011;5113;41.822;23.564;2024-03-23T05:59:12;43.90;;;24.40;;
10144;SDS011;5113;41.822;23.564;2024-03-23T06:02:19;43.97;;;19.30;;
10144;SDS011;5113;41.822;23.564;2024-03-23T06:05:24;26.67;;;15.03;;
10144;SDS011;5113;41.822;23.564;2024-03-23T06:08:28;38.50;;;20.17;;
10144;SDS011;5113;41.822;23.564;2024-03-23T06:11:35;58.87;;;28.70;;
10144;SDS011;5113;41.822;23.564;2024-03-23T06:14:39;79.27;;;34.87;;
10144;SDS011;5113;41.822;23.564;2024-03-23T06:17:46;31.70;;;19.13;;
10144;SDS011;5113;41.822;23.564;2024-03-23T06:20:50;18.07;;;11.67;;
10144;SDS011;5113;41.822;23.564;2024-03-23T06:23:56;16.63;;;9.57;;
10144;SDS011;5113;41.822;23.564;2024-03-23T06:27:01;11.27;;;7.53;;
10144;SDS011;5113;41.822;23.564;2024-03-23T06:30:08;23.33;;;11.13;;
10144;SDS011;5113;41.822;23.564;2024-03-23T06:33:15;62.70;;;26.80;;
10144;SDS011;5113;41.822;23.564;2024-03-23T06:36:20;46.30;;;21.07;;
10144;SDS011;5113;41.822;23.564;2024-03-23T06:39:25;52.13;;;23.30;;
10144;SDS011;5113;41.822;23.564;2024-03-23T06:42:31;19.27;;;11.00;;
10144;SDS011;5113;41.822;23.564;2024-03-23T06:45:35;23.30;;;13.53;;
10144;SDS011;5113;41.822;23.564;2024-03-23T06:48:42;20.37;;;11.20;;
10144;SDS011;5113;41.822;23.564;2024-03-23T06:51:48;20.70;;;13.10;;
10144;SDS011;5113;41.822;23.564;2024-03-23T06:54:54;18.57;;;11.27;;
10144;SDS011;5113;41.822;23.564;2024-03-23T06:57:59;15.07;;;11.43;;
10144;SDS011;5113;41.822;23.564;2024-03-23T07:01:04;26.83;;;14.13;;
10144;SDS011;5113;41.822;23.564;2024-03-23T07:04:10;20.20;;;12.93;;
10144;SDS011;5113;41.822;23.564;2024-03-23T07:07:16;29.13;;;15.60;;
10144;SDS011;5113;41.822;23.564;2024-03-23T07:10:22;27.17;;;15.27;;
10144;SDS011;5113;41.822;23.564;2024-03-23T07:13:26;25.47;;;14.80;;
10144;SDS011;5113;41.822;23.564;2024-03-23T07:16:32;14.97;;;9.97;;
10144;SDS011;5113;41.822;23.564;2024-03-23T07:19:38;12.67;;;8.43;;
10144;SDS011;5113;41.822;23.564;2024-03-23T07:22:45;13.80;;;8.70;;
10144;SDS011;5113;41.822;23.564;2024-03-23T07:25:56;18.03;;;10.87;;
10144;SDS011;5113;41.822;23.564;2024-03-23T07:29:02;11.53;;;7.13;;
10144;SDS011;5113;41.822;23.564;2024-03-23T07:32:06;14.17;;;8.83;;
10144;SDS011;5113;41.822;23.564;2024-03-23T07:35:13;10.23;;;7.77;;
10144;SDS011;5113;41.822;23.564;2024-03-23T07:38:18;13.10;;;8.43;;
10144;SDS011;5113;41.822;23.564;2024-03-23T07:41:23;13.53;;;8.57;;
10144;SDS011;5113;41.822;23.564;2024-03-23T07:44:31;17.00;;;9.40;;
10144;SDS011;5113;41.822;23.564;2024-03-23T07:47:37;9.87;;;6.80;;
10144;SDS011;5113;41.822;23.564;2024-03-23T07:50:43;10.60;;;7.70;;
10144;SDS011;5113;41.822;23.564;2024-03-23T07:54:06;11.40;;;7.50;;
10144;SDS011;5113;41.822;23.564;2024-03-23T07:57:12;12.13;;;7.80;;
10144;SDS011;5113;41.822;23.564;2024-03-23T08:00:16;17.63;;;10.10;;
10144;SDS011;5113;41.822;23.564;2024-03-23T08:03:22;14.17;;;8.97;;
10144;SDS011;5113;41.822;23.564;2024-03-23T08:06:28;11.00;;;8.10;;
10144;SDS011;5113;41.822;23.564;2024-03-23T08:09:33;15.40;;;8.67;;
10144;SDS011;5113;41.822;23.564;2024-03-23T08:12:39;10.40;;;6.07;;
10144;SDS011;5113;41.822;23.564;2024-03-23T08:15:43;6.97;;;5.97;;
10144;SDS011;5113;41.822;23.564;2024-03-23T08:18:50;12.67;;;8.27;;
10144;SDS011;5113;41.822;23.564;2024-03-23T08:21:57;9.60;;;7.07;;
10144;SDS011;5113;41.822;23.564;2024-03-23T08:25:02;10.33;;;5.80;;
10144;SDS011;5113;41.822;23.564;2024-03-23T08:28:06;11.43;;;7.90;;
10144;SDS011;5113;41.822;23.564;2024-03-23T08:31:13;13.33;;;9.97;;
10144;SDS011;5113;41.822;23.564;2024-03-23T08:34:18;5.73;;;5.17;;
10144;SDS011;5113;41.822;23.564;2024-03-23T08:37:25;9.70;;;5.77;;
10144;SDS011;5113;41.822;23.564;2024-03-23T08:40:30;16.47;;;10.90;;
10144;SDS011;5113;41.822;23.564;2024-03-23T08:43:37;15.23;;;11.93;;
10144;SDS011;5113;41.822;23.564;2024-03-23T08:46:44;8.70;;;6.80;;
10144;SDS011;5113;41.822;23.564;2024-03-23T08:49:48;12.50;;;7.43;;
10144;SDS011;5113;41.822;23.564;2024-03-23T08:52:55;29.17;;;14.03;;
10144;SDS011;5113;41.822;23.564;2024-03-23T08:56:00;23.63;;;10.97;;
10144;SDS011;5113;41.822;23.564;2024-03-23T08:59:06;11.27;;;5.93;;
10144;SDS011;5113;41.822;23.564;2024-03-23T09:02:12;9.43;;;6.17;;
10144;SDS011;5113;41.822;23.564;2024-03-23T09:05:16;13.37;;;6.27;;
10144;SDS011;5113;41.822;23.564;2024-03-23T09:08:23;8.33;;;5.97;;
10144;SDS011;5113;41.822;23.564;2024-03-23T09:11:28;6.17;;;4.80;;
10144;SDS011;5113;41.822;23.564;2024-03-23T09:14:34;10.27;;;4.40;;
10144;SDS011;5113;41.822;23.564;2024-03-23T09:17:38;5.87;;;5.10;;
10144;SDS011;5113;41.822;23.564;2024-03-23T09:20:44;4.63;;;3.80;;
10144;SDS011;5113;41.822;23.564;2024-03-23T09:23:49;5.20;;;4.13;;
10144;SDS011;5113;41.822;23.564;2024-03-23T09:26:54;10.10;;;6.27;;
10144;SDS011;5113;41.822;23.564;2024-03-23T09:29:59;5.67;;;4.13;;
10144;SDS011;5113;41.822;23.564;2024-03-23T09:33:04;4.27;;;3.43;;
10144;SDS011;5113;41.822;23.564;2024-03-23T09:36:09;5.33;;;4.23;;
10144;SDS011;5113;41.822;23.564;2024-03-23T09:39:16;4.53;;;3.80;;
10144;SDS011;5113;41.822;23.564;2024-03-23T09:42:20;5.47;;;4.73;;
10144;SDS011;5113;41.822;23.564;2024-03-23T09:45:26;5.90;;;4.60;;
10144;SDS011;5113;41.822;23.564;2024-03-23T09:48:33;4.43;;;4.00;;
10144;SDS011;5113;41.822;23.564;2024-03-23T09:51:37;2.73;;;2.53;;
10144;SDS011;5113;41.822;23.564;2024-03-23T09:54:44;5.20;;;3.03;;
10144;SDS011;5113;41.822;23.564;2024-03-23T09:57:49;3.20;;;2.90;;
10144;SDS011;5113;41.822;23.564;2024-03-23T10:00:55;5.27;;;3.50;;
10144;SDS011;5113;41.822;23.564;2024-03-23T10:04:00;2.83;;;2.63;;
10144;SDS011;5113;41.822;23.564;2024-03-23T10:07:12;7.80;;;5.17;;
10144;SDS011;5113;41.822;23.564;2024-03-23T10:10:20;8.03;;;4.47;;
10144;SDS011;5113;41.822;23.564;2024-03-23T10:13:25;12.50;;;4.97;;
10144;SDS011;5113;41.822;23.564;2024-03-23T10:16:32;7.17;;;3.27;;
10144;SDS011;5113;41.822;23.564;2024-03-23T10:19:37;4.00;;;3.50;;
10144;SDS011;5113;41.822;23.564;2024-03-23T10:22:42;5.00;;;4.60;;
10144;SDS011;5113;41.822;23.564;2024-03-23T10:25:48;8.17;;;5.33;;
10144;SDS011;5113;41.822;23.564;2024-03-23T10:28:55;4.57;;;3.47;;
10144;SDS011;5113;41.822;23.564;2024-03-23T10:32:07;4.90;;;3.57;;
10144;SDS011;5113;41.822;23.564;2024-03-23T10:35:13;6.13;;;4.50;;
10144;SDS011;5113;41.822;23.564;2024-03-23T10:38:20;20.27;;;9.47;;
10144;SDS011;5113;41.822;23.564;2024-03-23T10:41:27;6.13;;;3.50;;
10144;SDS011;5113;41.822;23.564;2024-03-23T10:44:33;4.37;;;2.77;;
10144;SDS011;5113;41.822;23.564;2024-03-23T10:47:39;8.23;;;5.43;;
10144;SDS011;5113;41.822;23.564;2024-03-23T10:50:43;3.20;;;2.73;;
10144;SDS011;5113;41.822;23.564;2024-03-23T10:53:49;3.43;;;3.00;;
10144;SDS011;5113;41.822;23.564;2024-03-23T10:56:59;3.60;;;3.30;;
10144;SDS011;5113;41.822;23.564;2024-03-23T11:00:10;2.50;;;2.30;;
10144;SDS011;5113;41.822;23.564;2024-03-23T11:03:29;3.00;;;2.60;;
10144;SDS011;5113;41.822;23.564;2024-03-23T11:06:36;3.70;;;3.10;;
10144;SDS011;5113;41.822;23.564;2024-03-23T11:09:43;6.10;;;3.93;;
10144;SDS011;5113;41.822;23.564;2024-03-23T11:12:50;6.70;;;4.13;;
10144;SDS011;5113;41.822;23.564;2024-03-23T11:15:56;2.40;;;2.20;;
10144;SDS011;5113;41.822;23.564;2024-03-23T11:19:34;3.17;;;2.80;;
10144;SDS011;5113;41.822;23.564;2024-03-23T11:22:40;12.73;;;6.90;;
10144;SDS011;5113;41.822;23.564;2024-03-23T11:25:46;6.87;;;4.63;;
10144;SDS011;5113;41.822;23.564;2024-03-23T11:28:53;4.23;;;3.40;;
10144;SDS011;5113;41.822;23.564;2024-03-23T11:32:13;3.93;;;3.67;;
10144;SDS011;5113;41.822;23.564;2024-03-23T11:35:27;2.00;;;1.90;;
10144;SDS011;5113;41.822;23.564;2024-03-23T11:38:36;2.20;;;2.10;;
10144;SDS011;5113;41.822;23.564;2024-03-23T11:41:48;2.20;;;2.10;;
10144;SDS011;5113;41.822;23.564;2024-03-23T11:44:55;2.53;;;2.33;;
10144;SDS011;5113;41.822;23.564;2024-03-23T11:48:02;2.30;;;2.10;;
10144;SDS011;5113;41.822;23.564;2024-03-23T11:51:08;2.10;;;1.97;;
10144;SDS011;5113;41.822;23.564;2024-03-23T11:54:14;2.00;;;1.90;;
10144;SDS011;5113;41.822;23.564;2024-03-23T11:57:19;1.90;;;1.80;;
10144;SDS011;5113;41.822;23.564;2024-03-23T12:00:26;2.47;;;2.27;;
10144;SDS011;5113;41.822;23.564;2024-03-23T12:03:33;3.33;;;3.10;;
10144;SDS011;5113;41.822;23.564;2024-03-23T12:06:39;4.73;;;4.27;;
10144;SDS011;5113;41.822;23.564;2024-03-23T12:09:43;5.33;;;4.27;;
10144;SDS011;5113;41.822;23.564;2024-03-23T12:12:59;3.50;;;2.83;;
10144;SDS011;5113;41.822;23.564;2024-03-23T12:16:12;5.10;;;2.50;;
10144;SDS011;5113;41.822;23.564;2024-03-23T12:19:18;4.50;;;3.73;;
10144;SDS011;5113;41.822;23.564;2024-03-23T12:22:22;2.90;;;2.40;;
10144;SDS011;5113;41.822;23.564;2024-03-23T12:25:28;3.47;;;3.17;;
10144;SDS011;5113;41.822;23.564;2024-03-23T12:28:32;5.10;;;2.90;;
10144;SDS011;5113;41.822;23.564;2024-03-23T12:31:40;4.03;;;3.53;;
10144;SDS011;5113;41.822;23.564;2024-03-23T12:34:44;6.17;;;4.17;;
10144;SDS011;5113;41.822;23.564;2024-03-23T12:37:50;3.97;;;2.93;;
10144;SDS011;5113;41.822;23.564;2024-03-23T12:40:54;4.60;;;4.20;;
10144;SDS011;5113;41.822;23.564;2024-03-23T12:44:00;5.40;;;4.30;;
10144;SDS011;5113;41.822;23.564;2024-03-23T12:47:05;17.63;;;5.83;;
10144;SDS011;5113;41.822;23.564;2024-03-23T12:50:11;7.27;;;4.57;;
10144;SDS011;5113;41.822;23.564;2024-03-23T12:53:16;4.03;;;3.53;;
10144;SDS011;5113;41.822;23.564;2024-03-23T12:56:21;4.67;;;3.57;;
10144;SDS011;5113;41.822;23.564;2024-03-23T12:59:27;9.43;;;6.03;;
10144;SDS011;5113;41.822;23.564;2024-03-23T13:02:35;10.17;;;6.57;;
10144;SDS011;5113;41.822;23.564;2024-03-23T13:05:41;10.10;;;7.23;;
10144;SDS011;5113;41.822;23.564;2024-03-23T13:08:45;16.87;;;9.37;;
10144;SDS011;5113;41.822;23.564;2024-03-23T13:11:53;13.13;;;7.30;;
10144;SDS011;5113;41.822;23.564;2024-03-23T13:14:59;7.10;;;5.33;;
10144;SDS011;5113;41.822;23.564;2024-03-23T13:18:06;7.90;;;5.13;;
10144;SDS011;5113;41.822;23.564;2024-03-23T13:21:11;13.67;;;7.90;;
10144;SDS011;5113;41.822;23.564;2024-03-23T13:24:17;5.33;;;3.70;;
10144;SDS011;5113;41.822;23.564;2024-03-23T13:27:22;10.13;;;6.40;;
10144;SDS011;5113;41.822;23.564;2024-03-23T13:33:57;3.03;;;2.43;;
10144;SDS011;5113;41.822;23.564;2024-03-23T13:37:02;2.67;;;2.20;;
10144;SDS011;5113;41.822;23.564;2024-03-23T13:40:08;3.60;;;3.17;;
10144;SDS011;5113;41.822;23.564;2024-03-23T13:43:14;6.83;;;5.03;;
10144;SDS011;5113;41.822;23.564;2024-03-23T13:46:19;9.23;;;6.23;;
10144;SDS011;5113;41.822;23.564;2024-03-23T13:49:28;8.67;;;6.27;;
10144;SDS011;5113;41.822;23.564;2024-03-23T13:52:35;5.57;;;4.83;;
10144;SDS011;5113;41.822;23.564;2024-03-23T13:55:45;7.97;;;4.63;;
10144;SDS011;5113;41.822;23.564;2024-03-23T13:58:52;2.67;;;2.47;;
10144;SDS011;5113;41.822;23.564;2024-03-23T14:01:56;3.80;;;2.63;;
10144;SDS011;5113;41.822;23.564;2024-03-23T14:05:03;5.83;;;4.37;;
10144;SDS011;5113;41.822;23.564;2024-03-23T14:08:08;4.03;;;3.43;;
10144;SDS011;5113;41.822;23.564;2024-03-23T14:11:14;3.10;;;2.80;;
10144;SDS011;5113;41.822;23.564;2024-03-23T14:14:19;2.63;;;2.30;;
10144;SDS011;5113;41.822;23.564;2024-03-23T14:17:25;3.67;;;2.77;;
10144;SDS011;5113;41.822;23.564;2024-03-23T14:20:31;5.73;;;3.70;;
10144;SDS011;5113;41.822;23.564;2024-03-23T14:23:36;6.10;;;4.57;;
10144;SDS011;5113;41.822;23.564;2024-03-23T14:26:40;11.83;;;8.23;;
10144;SDS011;5113;41.822;23.564;2024-03-23T14:29:46;20.67;;;10.73;;
10144;SDS011;5113;41.822;23.564;2024-03-23T14:32:51;4.00;;;3.33;;
10144;SDS011;5113;41.822;23.564;2024-03-23T14:35:58;15.30;;;7.93;;
10144;SDS011;5113;41.822;23.564;2024-03-23T14:39:04;12.97;;;10.33;;
10144;SDS011;5113;41.822;23.564;2024-03-23T14:42:08;4.20;;;3.80;;
10144;SDS011;5113;41.822;23.564;2024-03-23T14:45:14;3.63;;;3.30;;
10144;SDS011;5113;41.822;23.564;2024-03-23T14:48:19;2.83;;;2.63;;
10144;SDS011;5113;41.822;23.564;2024-03-23T14:51:27;7.13;;;5.23;;
10144;SDS011;5113;41.822;23.564;2024-03-23T14:54:33;2.20;;;2.10;;
10144;SDS011;5113;41.822;23.564;2024-03-23T14:57:39;5.73;;;3.43;;
10144;SDS011;5113;41.822;23.564;2024-03-23T15:00:44;6.80;;;5.97;;
10144;SDS011;5113;41.822;23.564;2024-03-23T15:03:49;2.77;;;2.50;;
10144;SDS011;5113;41.822;23.564;2024-03-23T15:06:58;14.00;;;8.17;;
10144;SDS011;5113;41.822;23.564;2024-03-23T15:10:04;10.53;;;7.67;;
10144;SDS011;5113;41.822;23.564;2024-03-23T15:13:11;22.63;;;11.50;;
10144;SDS011;5113;41.822;23.564;2024-03-23T15:16:16;9.07;;;6.37;;
10144;SDS011;5113;41.822;23.564;2024-03-23T15:19:23;12.47;;;7.80;;
10144;SDS011;5113;41.822;23.564;2024-03-23T15:22:30;8.77;;;6.33;;
10144;SDS011;5113;41.822;23.564;2024-03-23T15:25:36;7.77;;;5.80;;
10144;SDS011;5113;41.822;23.564;2024-03-23T15:28:40;10.33;;;8.07;;
10144;SDS011;5113;41.822;23.564;2024-03-23T15:32:06;15.00;;;9.27;;
10144;SDS011;5113;41.822;23.564;2024-03-23T15:35:11;30.80;;;15.83;;
10144;SDS011;5113;41.822;23.564;2024-03-23T15:38:18;18.17;;;11.63;;
10144;SDS011;5113;41.822;23.564;2024-03-23T15:41:24;9.93;;;8.83;;
10144;SDS011;5113;41.822;23.564;2024-03-23T15:44:29;5.60;;;4.40;;
10144;SDS011;5113;41.822;23.564;2024-03-23T15:47:35;8.17;;;5.10;;
10144;SDS011;5113;41.822;23.564;2024-03-23T15:50:39;8.60;;;6.27;;
10144;SDS011;5113;41.822;23.564;2024-03-23T15:53:47;15.90;;;8.13;;
10144;SDS011;5113;41.822;23.564;2024-03-23T15:56:55;18.53;;;9.63;;
10144;SDS011;5113;41.822;23.564;2024-03-23T16:00:00;14.10;;;9.07;;
10144;SDS011;5113;41.822;23.564;2024-03-23T16:03:06;16.90;;;12.17;;
10144;SDS011;5113;41.822;23.564;2024-03-23T16:06:11;20.40;;;12.60;;
10144;SDS011;5113;41.822;23.564;2024-03-23T16:09:18;49.90;;;29.33;;
10144;SDS011;5113;41.822;23.564;2024-03-23T16:12:23;47.40;;;27.77;;
10144;SDS011;5113;41.822;23.564;2024-03-23T16:15:28;34.87;;;22.87;;
10144;SDS011;5113;41.822;23.564;2024-03-23T16:18:33;27.20;;;20.33;;
10144;SDS011;5113;41.822;23.564;2024-03-23T16:21:39;21.43;;;15.60;;
10144;SDS011;5113;41.822;23.564;2024-03-23T16:24:46;23.10;;;14.93;;
10144;SDS011;5113;41.822;23.564;2024-03-23T16:27:52;26.50;;;18.47;;
10144;SDS011;5113;41.822;23.564;2024-03-23T16:30:57;28.80;;;14.43;;
10144;SDS011;5113;41.822;23.564;2024-03-23T16:34:04;25.97;;;13.73;;
10144;SDS011;5113;41.822;23.564;2024-03-23T16:37:08;36.83;;;21.90;;
10144;SDS011;5113;41.822;23.564;2024-03-23T16:40:15;17.63;;;11.13;;
10144;SDS011;5113;41.822;23.564;2024-03-23T16:43:20;22.43;;;15.73;;
10144;SDS011;5113;41.822;23.564;2024-03-23T16:46:26;25.53;;;12.23;;
10144;SDS011;5113;41.822;23.564;2024-03-23T16:49:32;12.90;;;9.80;;
10144;SDS011;5113;41.822;23.564;2024-03-23T16:52:36;31.27;;;20.53;;
10144;SDS011;5113;41.822;23.564;2024-03-23T16:55:45;27.97;;;15.13;;
10144;SDS011;5113;41.822;23.564;2024-03-23T16:58:49;28.13;;;16.53;;
10144;SDS011;5113;41.822;23.564;2024-03-23T17:01:55;12.10;;;9.60;;
10144;SDS011;5113;41.822;23.564;2024-03-23T17:04:59;24.67;;;18.17;;
10144;SDS011;5113;41.822;23.564;2024-03-23T17:08:05;27.00;;;17.00;;
10144;SDS011;5113;41.822;23.564;2024-03-23T17:11:11;35.03;;;18.33;;
10144;SDS011;5113;41.822;23.564;2024-03-23T17:14:17;73.07;;;40.40;;
10144;SDS011;5113;41.822;23.564;2024-03-23T17:17:21;54.90;;;35.10;;
10144;SDS011;5113;41.822;23.564;2024-03-23T17:20:27;55.57;;;31.90;;
10144;SDS011;5113;41.822;23.564;2024-03-23T17:23:33;68.67;;;35.43;;
10144;SDS011;5113;41.822;23.564;2024-03-23T17:26:40;64.47;;;33.30;;
10144;SDS011;5113;41.822;23.564;2024-03-23T17:29:45;43.87;;;25.77;;
10144;SDS011;5113;41.822;23.564;2024-03-23T17:32:51;75.30;;;40.23;;
10144;SDS011;5113;41.822;23.564;2024-03-23T17:35:56;76.20;;;40.90;;
10144;SDS011;5113;41.822;23.564;2024-03-23T17:39:01;68.90;;;36.87;;
10144;SDS011;5113;41.822;23.564;2024-03-23T17:42:08;76.33;;;39.37;;
10144;SDS011;5113;41.822;23.564;2024-03-23T17:45:12;51.50;;;28.10;;
10144;SDS011;5113;41.822;23.564;2024-03-23T17:48:19;61.33;;;31.10;;
10144;SDS011;5113;41.822;23.564;2024-03-23T17:51:23;51.57;;;26.83;;
10144;SDS011;5113;41.822;23.564;2024-03-23T17:54:28;29.67;;;17.23;;
10144;SDS011;5113;41.822;23.564;2024-03-23T17:57:35;32.50;;;18.57;;
10144;SDS011;5113;41.822;23.564;2024-03-23T18:00:39;44.30;;;23.50;;
10144;SDS011;5113;41.822;23.564;2024-03-23T18:03:45;92.53;;;45.07;;
10144;SDS011;5113;41.822;23.564;2024-03-23T18:06:49;66.20;;;34.40;;
10144;SDS011;5113;41.822;23.564;2024-03-23T18:09:55;67.63;;;35.23;;
10144;SDS011;5113;41.822;23.564;2024-03-23T18:13:02;49.23;;;26.77;;
10144;SDS011;5113;41.822;23.564;2024-03-23T18:16:07;64.33;;;34.33;;
10144;SDS011;5113;41.822;23.564;2024-03-23T18:19:12;55.20;;;31.83;;
10144;SDS011;5113;41.822;23.564;2024-03-23T18:22:16;49.77;;;29.40;;
10144;SDS011;5113;41.822;23.564;2024-03-23T18:25:21;80.77;;;42.63;;
10144;SDS011;5113;41.822;23.564;2024-03-23T18:28:27;62.67;;;32.73;;
10144;SDS011;5113;41.822;23.564;2024-03-23T18:31:33;72.17;;;38.93;;
10144;SDS011;5113;41.822;23.564;2024-03-23T18:34:38;80.07;;;41.90;;
10144;SDS011;5113;41.822;23.564;2024-03-23T18:37:43;83.07;;;43.20;;
10144;SDS011;5113;41.822;23.564;2024-03-23T18:40:47;91.90;;;50.77;;
10144;SDS011;5113;41.822;23.564;2024-03-23T18:43:55;103.83;;;52.67;;
10144;SDS011;5113;41.822;23.564;2024-03-23T18:47:00;73.10;;;41.23;;
10144;SDS011;5113;41.822;23.564;2024-03-23T18:50:05;61.40;;;33.30;;
10144;SDS011;5113;41.822;23.564;2024-03-23T18:53:12;69.87;;;34.97;;
10144;SDS011;5113;41.822;23.564;2024-03-23T18:56:18;70.97;;;34.37;;
10144;SDS011;5113;41.822;23.564;2024-03-23T18:59:24;76.60;;;36.67;;
10144;SDS011;5113;41.822;23.564;2024-03-23T19:02:29;90.00;;;41.23;;
10144;SDS011;5113;41.822;23.564;2024-03-23T19:05:34;55.53;;;33.50;;
10144;SDS011;5113;41.822;23.564;2024-03-23T19:08:39;27.53;;;18.20;;
10144;SDS011;5113;41.822;23.564;2024-03-23T19:11:44;54.83;;;32.77;;
10144;SDS011;5113;41.822;23.564;2024-03-23T19:14:52;80.87;;;41.93;;
10144;SDS011;5113;41.822;23.564;2024-03-23T19:17:58;70.93;;;37.83;;